createdAt,value
2022-11-20T00:02:18.198Z,100712.47
2022-11-20T00:06:20.877Z,100720.34
2022-11-20T00:10:22.384Z,100706.44
2022-11-20T00:14:24.148Z,100702.91
2022-11-20T00:18:26.287Z,100701.59
2022-11-20T00:22:27.743Z,100693.72
2022-11-20T00:26:30.012Z,100704.84
2022-11-20T00:30:31.573Z,100703.19
2022-11-20T00:34:33.080Z,100695.59
2022-11-20T00:38:35.059Z,100692.66
2022-11-20T00:42:36.530Z,100702.13
2022-11-20T00:46:38.020Z,100705.69
2022-11-20T00:50:40.120Z,100704.09
2022-11-20T00:54:41.566Z,100703.81
2022-11-20T00:58:44.705Z,100705.19
2022-11-20T01:02:46.262Z,100701.97
2022-11-20T01:06:47.746Z,100704.66
2022-11-20T01:10:49.194Z,100700.56
2022-11-20T01:14:50.901Z,100705.50
2022-11-20T01:18:54.425Z,100706.06
2022-11-20T01:22:55.872Z,100689.78
2022-11-20T01:26:57.373Z,100688.69
2022-11-20T01:30:59.573Z,100698.16
2022-11-20T01:35:00.965Z,100691.94
2022-11-20T01:39:06.259Z,100694.91
2022-11-20T01:43:23.889Z,100697.41
2022-11-20T01:47:34.966Z,100686.53
2022-11-20T01:51:43.169Z,100689.81
2022-11-20T01:55:54.312Z,100683.56
2022-11-20T02:00:02.480Z,100693.91
2022-11-20T02:04:04.098Z,100681.41
2022-11-20T02:08:07.732Z,100689.00
2022-11-20T02:12:29.231Z,100674.09
2022-11-20T02:16:37.946Z,100669.72
2022-11-20T02:20:42.794Z,100669.75
2022-11-20T02:24:46.213Z,100663.25
2022-11-20T02:28:47.711Z,100663.00
2022-11-20T02:32:49.223Z,100663.19
2022-11-20T02:36:53.153Z,100661.31
2022-11-20T02:40:55.824Z,100655.63
2022-11-20T02:44:57.484Z,100655.91
2022-11-20T02:48:59.068Z,100654.56
2022-11-20T02:53:00.560Z,100647.00
2022-11-20T02:57:02.016Z,100656.22
2022-11-20T03:01:03.534Z,100642.13
2022-11-20T03:05:05.266Z,100645.63
2022-11-20T03:09:07.025Z,100643.78
2022-11-20T03:13:08.525Z,100635.59
2022-11-20T03:17:10.465Z,100637.53
2022-11-20T03:21:13.347Z,100639.47
2022-11-20T03:25:14.822Z,100622.06
2022-11-20T03:29:16.265Z,100622.84
2022-11-20T03:33:17.731Z,100629.38
2022-11-20T03:37:19.195Z,100628.03
2022-11-20T03:41:26.125Z,100628.56
2022-11-20T03:45:27.546Z,100630.22
2022-11-20T03:49:28.953Z,100628.28
2022-11-20T03:53:30.419Z,100629.66
2022-11-20T03:57:31.866Z,100623.13
2022-11-20T04:01:36.266Z,100622.28
2022-11-20T04:05:37.807Z,100614.09
2022-11-20T04:09:39.229Z,100620.63
2022-11-20T04:13:41.992Z,100617.34
2022-11-20T04:17:43.470Z,100624.38
2022-11-20T04:21:45.505Z,100616.00
2022-11-20T04:25:47.009Z,100619.50
2022-11-20T04:29:48.454Z,100617.66
2022-11-20T04:33:50.045Z,100627.63
2022-11-20T04:37:54.322Z,100614.81
2022-11-20T04:42:14.115Z,100617.03
2022-11-20T04:46:20.017Z,100625.72
2022-11-20T04:50:21.528Z,100618.09
2022-11-20T04:54:22.991Z,100609.63
2022-11-20T04:58:24.399Z,100605.03
2022-11-20T05:02:26.025Z,100607.47
2022-11-20T05:06:27.496Z,100598.78
2022-11-20T05:10:29.438Z,100593.28
2022-11-20T05:14:30.928Z,100585.19
2022-11-20T05:18:32.527Z,100581.38
2022-11-20T05:22:34.040Z,100581.63
2022-11-20T05:26:35.470Z,100582.16
2022-11-20T05:30:36.915Z,100584.06
2022-11-20T05:34:38.412Z,100588.16
2022-11-20T05:38:40.724Z,100584.88
2022-11-20T05:42:44.686Z,100590.53
2022-11-20T05:46:46.142Z,100583.22
2022-11-20T05:50:49.099Z,100587.81
2022-11-20T05:54:50.820Z,100581.56
2022-11-20T05:58:52.384Z,100576.38
2022-11-20T06:02:53.906Z,100569.00
2022-11-20T06:06:55.397Z,100563.53
2022-11-20T06:10:57.139Z,100580.38
2022-11-20T06:14:58.600Z,100577.13
2022-11-20T06:18:59.993Z,100577.63
2022-11-20T06:23:01.494Z,100568.19
2022-11-20T06:27:02.985Z,100574.09
2022-11-20T06:31:05.704Z,100567.88
2022-11-20T06:35:07.522Z,100573.81
2022-11-20T06:39:09.116Z,100575.22
2022-11-20T06:43:11.213Z,100574.91
2022-11-20T06:47:12.697Z,100572.75
2022-11-20T06:51:14.757Z,100574.06
2022-11-20T06:55:16.197Z,100570.38
2022-11-20T06:59:17.676Z,100572.56
2022-11-20T07:03:19.195Z,100571.72
2022-11-20T07:07:20.704Z,100575.28
2022-11-20T07:11:22.259Z,100572.56
2022-11-20T07:15:25.880Z,100574.50
2022-11-20T07:19:27.327Z,100572.84
2022-11-20T07:23:28.785Z,100570.38
2022-11-20T07:27:30.656Z,100555.75
2022-11-20T07:31:32.156Z,100554.91
2022-11-20T07:35:33.898Z,100554.38
2022-11-20T07:39:35.354Z,100556.00
2022-11-20T07:43:40.952Z,100560.69
2022-11-20T07:47:42.998Z,100557.09
2022-11-20T07:51:44.535Z,100556.78
2022-11-20T07:55:45.990Z,100548.63
2022-11-20T07:59:47.523Z,100543.13
2022-11-20T08:03:49.049Z,100546.38
2022-11-20T08:07:50.637Z,100535.16
2022-11-20T08:12:30.588Z,100537.59
2022-11-20T08:16:32.109Z,100537.88
2022-11-20T08:20:34.983Z,100540.94
2022-11-20T08:24:36.516Z,100540.66
2022-11-20T08:28:37.999Z,100540.03
2022-11-20T08:32:39.600Z,100540.56
2022-11-20T08:36:40.993Z,100546.72
2022-11-20T08:41:02.418Z,100545.09
2022-11-20T08:45:05.629Z,100532.16
2022-11-20T08:49:09.141Z,100533.50
2022-11-20T08:53:10.612Z,100525.69
2022-11-20T08:57:12.057Z,100529.34
2022-11-20T09:01:13.513Z,100528.91
2022-11-20T09:05:15.128Z,100534.28
2022-11-20T09:09:16.578Z,100551.03
2022-11-20T09:13:18.008Z,100541.81
2022-11-20T09:17:21.293Z,100538.13
2022-11-20T09:21:23.904Z,100539.22
2022-11-20T09:25:26.262Z,100534.84
2022-11-20T09:29:27.718Z,100535.25
2022-11-20T09:33:29.130Z,100531.81
2022-11-20T09:37:30.724Z,100537.84
2022-11-20T09:42:07.831Z,100536.72
2022-11-20T09:46:24.843Z,100532.69
2022-11-20T09:50:30.196Z,100528.81
2022-11-20T09:54:38.610Z,100531.06
2022-11-20T09:58:46.698Z,100526.09
2022-11-20T10:02:56.020Z,100520.78
2022-11-20T10:07:32.369Z,100515.16
2022-11-20T10:11:43.304Z,100520.19
2022-11-20T10:16:02.592Z,100500.69
2022-11-20T10:20:30.746Z,100508.78
2022-11-20T10:24:50.832Z,100505.13
2022-11-20T10:29:13.582Z,100506.94
2022-11-20T10:33:20.588Z,100505.25
2022-11-20T10:37:30.055Z,100506.59
2022-11-20T10:41:39.951Z,100493.63
2022-11-20T10:45:46.521Z,100504.53
2022-11-20T10:49:54.043Z,100489.78
2022-11-20T10:54:41.288Z,100483.94
2022-11-20T10:59:09.139Z,100482.97
2022-11-20T11:03:27.118Z,100486.41
2022-11-20T11:07:39.159Z,100478.72
2022-11-20T11:11:40.774Z,100481.75
2022-11-20T11:15:42.256Z,100474.66
2022-11-20T11:19:43.795Z,100475.28
2022-11-20T11:23:45.279Z,100468.25
2022-11-20T11:27:52.668Z,100458.41
2022-11-20T11:32:09.074Z,100451.88
2022-11-20T11:36:25.950Z,100455.78
2022-11-20T11:40:30.757Z,100450.31
2022-11-20T11:44:53.211Z,100447.13
2022-11-20T11:49:00.404Z,100442.16
2022-11-20T11:53:06.591Z,100439.19
2022-11-20T11:57:43.060Z,100445.34
2022-11-20T12:01:52.201Z,100441.72
2022-11-20T12:06:06.486Z,100428.63
2022-11-20T12:10:18.681Z,100429.25
2022-11-20T12:14:28.829Z,100419.19
2022-11-20T12:18:31.528Z,100426.53
2022-11-20T12:22:39.096Z,100425.41
2022-11-20T12:26:52.395Z,100409.25
2022-11-20T12:31:07.165Z,100414.16
2022-11-20T12:35:30.177Z,100410.88
2022-11-20T12:39:35.738Z,100418.72
2022-11-20T12:44:18.596Z,100409.91
2022-11-20T12:48:53.779Z,100407.16
2022-11-20T12:53:01.389Z,100410.47
2022-11-20T12:57:08.674Z,100412.81
2022-11-20T13:01:40.790Z,100422.22
2022-11-20T13:06:14.483Z,100411.84
2022-11-20T13:10:33.026Z,100402.81
2022-11-20T13:14:56.202Z,100399.94
2022-11-20T13:19:02.369Z,100398.63
2022-11-20T13:23:03.938Z,100393.44
2022-11-20T13:27:14.538Z,100395.91
2022-11-20T13:31:46.866Z,100385.59
2022-11-20T13:35:58.522Z,100379.47
2022-11-20T13:40:26.487Z,100383.97
2022-11-20T13:44:33.983Z,100383.00
2022-11-20T13:48:46.631Z,100377.03
2022-11-20T13:53:01.727Z,100379.78
2022-11-20T13:57:24.032Z,100376.38
2022-11-20T14:01:30.911Z,100386.38
2022-11-20T14:05:40.682Z,100390.94
2022-11-20T14:09:55.359Z,100386.34
2022-11-20T14:14:04.577Z,100389.34
2022-11-20T14:18:15.405Z,100388.81
2022-11-20T14:22:19.561Z,100376.00
2022-11-20T14:26:21.278Z,100380.81
2022-11-20T14:30:38.300Z,100366.75
2022-11-20T14:34:42.811Z,100371.59
2022-11-20T14:38:44.314Z,100378.97
2022-11-20T14:42:45.974Z,100387.84
2022-11-20T14:46:47.609Z,100398.47
2022-11-20T14:50:49.011Z,100391.03
2022-11-20T14:54:55.629Z,100390.22
2022-11-20T14:58:58.820Z,100387.06
2022-11-20T15:03:00.367Z,100392.59
2022-11-20T15:07:01.914Z,100386.34
2022-11-20T15:11:17.337Z,100380.72
2022-11-20T15:15:31.456Z,100380.06
2022-11-20T15:19:32.900Z,100379.03
2022-11-20T15:23:35.510Z,100378.66
2022-11-20T15:27:36.986Z,100374.00
2022-11-20T15:31:42.317Z,100374.59
2022-11-20T15:35:44.927Z,100369.59
2022-11-20T15:39:46.319Z,100371.66
2022-11-20T15:43:47.797Z,100369.06
2022-11-20T15:47:49.255Z,100368.34
2022-11-20T15:51:53.478Z,100363.47
2022-11-20T15:55:55.138Z,100364.44
2022-11-20T15:59:56.566Z,100361.66
2022-11-20T16:03:57.992Z,100361.69
2022-11-20T16:07:59.523Z,100358.09
2022-11-20T16:12:01.042Z,100352.81
2022-11-20T16:16:06.240Z,100346.56
2022-11-20T16:20:12.383Z,100342.88
2022-11-20T16:24:15.666Z,100345.47
2022-11-20T16:28:19.309Z,100343.50
2022-11-20T16:32:20.924Z,100355.41
2022-11-20T16:36:24.843Z,100363.13
2022-11-20T16:40:26.586Z,100356.00
2022-11-20T16:44:28.000Z,100349.16
2022-11-20T16:48:30.750Z,100348.72
2022-11-20T16:52:32.543Z,100345.91
2022-11-20T16:56:34.509Z,100339.06
2022-11-20T17:00:40.389Z,100346.28
2022-11-20T17:04:41.866Z,100347.97
2022-11-20T17:08:44.072Z,100353.19
2022-11-20T17:12:45.488Z,100343.00
2022-11-20T17:16:47.039Z,100344.06
2022-11-20T17:20:52.379Z,100342.66
2022-11-20T17:24:53.802Z,100342.03
2022-11-20T17:28:59.861Z,100347.16
2022-11-20T17:33:02.151Z,100346.59
2022-11-20T17:37:04.630Z,100335.84
2022-11-20T17:41:09.586Z,100343.94
2022-11-20T17:45:11.102Z,100342.50
2022-11-20T17:49:12.828Z,100337.16
2022-11-20T17:53:14.300Z,100342.22
2022-11-20T17:57:34.308Z,100338.63
2022-11-20T18:01:35.898Z,100331.59
2022-11-20T18:05:37.405Z,100325.94
2022-11-20T18:09:38.966Z,100323.66
2022-11-20T18:14:04.590Z,100318.09
2022-11-20T18:18:06.171Z,100310.81
2022-11-20T18:22:08.840Z,100315.75
2022-11-20T18:26:10.326Z,100307.09
2022-11-20T18:30:12.607Z,100307.19
2022-11-20T18:34:14.272Z,100308.16
2022-11-20T18:38:15.821Z,100310.22
2022-11-20T18:42:35.986Z,100305.53
2022-11-20T18:46:37.500Z,100301.41
2022-11-20T18:50:39.087Z,100297.56
2022-11-20T18:54:40.990Z,100303.50
2022-11-20T18:58:42.539Z,100299.97
2022-11-20T19:02:44.055Z,100300.22
2022-11-20T19:06:49.425Z,100290.16
2022-11-20T19:10:51.381Z,100302.13
2022-11-20T19:14:52.906Z,100306.06
2022-11-20T19:18:57.155Z,100301.13
2022-11-20T19:22:58.975Z,100303.59
2022-11-20T19:27:01.253Z,100303.03
2022-11-20T19:31:08.143Z,100311.22
2022-11-20T19:35:09.708Z,100313.88
2022-11-20T19:39:12.233Z,100310.56
2022-11-20T19:43:13.753Z,100312.22
2022-11-20T19:47:15.335Z,100302.16
2022-11-20T19:51:22.523Z,100298.75
2022-11-20T19:55:24.313Z,100297.03
2022-11-20T19:59:26.323Z,100297.19
2022-11-20T20:03:28.031Z,100287.06
2022-11-20T20:07:29.624Z,100288.44
2022-11-20T20:11:32.933Z,100287.94
2022-11-20T20:15:34.916Z,100287.84
2022-11-20T20:19:36.563Z,100284.00
2022-11-20T20:23:38.330Z,100276.69
2022-11-20T20:27:39.939Z,100275.72
2022-11-20T20:31:41.445Z,100255.84
2022-11-20T20:35:43.396Z,100256.81
2022-11-20T20:39:44.914Z,100250.28
2022-11-20T20:44:05.542Z,100253.00
2022-11-20T20:48:07.038Z,100253.91
2022-11-20T20:52:08.781Z,100250.44
2022-11-20T20:56:10.365Z,100251.81
2022-11-20T21:00:12.123Z,100239.94
2022-11-20T21:04:13.658Z,100249.00
2022-11-20T21:08:28.355Z,100238.69
2022-11-20T21:12:29.859Z,100231.91
2022-11-20T21:16:40.769Z,100223.19
2022-11-20T21:21:01.472Z,100219.72
2022-11-20T21:25:03.035Z,100219.41
2022-11-20T21:29:04.497Z,100215.97
2022-11-20T21:33:05.945Z,100208.13
2022-11-20T21:37:07.507Z,100205.03
2022-11-20T21:41:11.039Z,100200.06
2022-11-20T21:45:12.611Z,100193.31
2022-11-20T21:49:15.232Z,100195.56
2022-11-20T21:53:16.762Z,100196.13
2022-11-20T21:57:18.248Z,100184.56
2022-11-20T22:01:21.047Z,100174.00
2022-11-20T22:05:22.682Z,100173.94
2022-11-20T22:09:24.787Z,100174.50
2022-11-20T22:13:46.458Z,100166.66
2022-11-20T22:18:13.961Z,100164.78
2022-11-20T22:22:15.426Z,100167.53
2022-11-20T22:26:21.533Z,100164.28
2022-11-20T22:30:23.072Z,100151.59
2022-11-20T22:34:24.880Z,100150.53
2022-11-20T22:38:29.636Z,100146.78
2022-11-20T22:42:31.454Z,100138.91
2022-11-20T22:46:35.916Z,100131.78
2022-11-20T22:50:37.400Z,100125.19
2022-11-20T22:54:38.891Z,100123.81
2022-11-20T22:58:42.241Z,100125.13
2022-11-20T23:02:44.914Z,100119.28
2022-11-20T23:06:46.411Z,100112.16
2022-11-20T23:10:47.930Z,100110.97
2022-11-20T23:14:49.422Z,100102.22
2022-11-20T23:19:03.734Z,100110.91
2022-11-20T23:23:05.208Z,100106.78
2022-11-20T23:27:06.754Z,100100.25
2022-11-20T23:31:09.453Z,100090.84
2022-11-20T23:35:11.070Z,100082.66
2022-11-20T23:39:14.930Z,100085.03
2022-11-20T23:43:17.562Z,100083.69
2022-11-20T23:47:18.988Z,100081.97
2022-11-20T23:51:20.461Z,100081.69
2022-11-20T23:55:22.113Z,100070.47
2022-11-20T23:59:23.603Z,100053.91
